Maggard, Kentucky
Current Conditions -  °F | °C
As of 10:53 PM on Sunday 25 Jan 2015 (Local Time) from KJKL Reporting Station
Overcast Overcast  
Wind Chill: 43°   Ceiling: 4200
Heat Index: 43°   Visibility: 10mi
Dew Point: 36°   Wind: 3mph
Humidity: 76%   Direction: 220°SW
Pressure: 29.65"   Gusts: NA
Location:  37.7261°N, 83.0786°W
Report Text: KJKL 260353Z AUTO 22003KT 10SM OVC042 06/02 A2965 RMK AO2 RAE21 SLP043 P0000 T00610022
Loading
Personal Weather Stations






























Interactive Weather Map New forecast layout! Learn more

10-Day Weather Forecast

Advertisements
Track Severe Weather on mobile